Terminal Aerodrome Forecast
Issued by NWS Jackson, MS

Home | Current Version | Previous Version | Text Only | Print | Product List | Glossary On
Versions: 1 2 3 4 5 6 7 8 9 10 11 12 13 14 15
000
FTUS44 KJAN 011520 AAB
TAFHBG
TAF AMD
KHBG 011520Z 0115/0212 15003KT P6SM OVC007
     FM011530 17009KT 5SM -RA BR VCTS BKN007 OVC025CB
     FM011900 16009KT 6SM -SHRA VCTS BKN050CB
     FM020000 14005KT P6SM BKN050
     FM020900 10004KT 5SM BR BKN007 OVC015=

USA.gov is the U.S. government's official web portal to all federal, state and local government web resources and services.